Startpagina
METAR-TAF:

METAR-TAF

Vliegvelden :

Aéroport de Chambéry-Savoie

Chambery / Aix-Les-Bains, Frankrijk

breedte: 45-39N, lengte: 005-53E, hoogte: 235 m

Actueel weer

Dit bericht is 40 minuten geleden gemaakt, om 20:30 UTC
Wind 2 kt uit variabele richting
Temperatuur 7°C
Vochtigheid 81%
Druk 1029 hPa
Zicht 10 km of meer
geen wolken onder 1500 m en geen cumulonimbus

METAR: LFLB 232030Z AUTO VRB02KT CAVOK 07/04 Q1029 NOSIG

Tijdstip: 22:10 (21:10 UTC)

Verwachting

Dit bericht is 4 uur en het 10 minuten geleden gemaakt, om 17:00 UTC
Verwachting geldig van 23 om 18 UTC tot 24 om 18 UTC
Wind 2 kt uit variabele richting
Zicht 10 km of meer
geen wolken onder 1500 m en geen cumulonimbus
Kans 30% :
Tijdelijke
van 24 om 03 UTC tot 24 om 08 UTC
Zicht: 3000 m
nevel

TAF: LFLB 231700Z 2318/2418 VRB02KT CAVOK PROB30 TEMPO 2403/2408 3000 BR

Waarnemingen en weersverwachtingen van meer dan 4000 vliegvelden (METAR en TAF).

De beschikbare stations zijn de gele en rode punten op de kaart.

Ga met uw muis naar het station om de naam te zien.

Klik dan om waarnemingen en weersverwachtingen te zien.

kaart wijzigen: klik op de groene knoppen met een zwart kruis om in te zoomen, op de groene knop met een streepje om uit te zoomen of op de groene pijlen voor aangrenzende kaarten.


METAR-TAF: